Atlanta, Georgia
Traffic Map
Current Weather Conditions
Atlanta, Georgia
Overcast
Overcast
17°
Feels Like: 17°
Wind Chill: 17° Ceiling: 600
Heat Index: 17° Visibility: 7mi
Dew Point: 14° Wind: 8mph
Humidity: 82% Direction: 160° (SSE)
Pressure: 29.81in Gusts: 0mph
Raw Report DataKATL 251408Z 16007KT 7SM BKN006 OVC013 17/14 A2981 RMK AO2
Traffic Incident Summary
Active as of:
Severity:
Category:
InformationThere was an issue retrieving the traffic information for this location. Please try a different location or try again shortly.
Advertisements
Track Severe Weather on mobile